Time;durP1;ratioP1;P1;durP2;ratioP2;P2;SDS_P1;SDS_P2;PMS_P1;PMS_P2;Temp;Humidity;BMP_temperature;BMP_pressure;BME280_temperature;BME280_humidity;BME280_pressure;Samples;Min_cycle;Max_cycle;Signal;HPM_P1;HPM_P2
2022/04/26 03:37:05;;;;;;;8.43;6.07;;;5.50;99.90;;;;;;5053107;28;20945;-69
2022/04/26 03:39:32;;;;;;;8.53;6.70;;;5.50;99.90;;;;;;5052009;28;20471;-69
2022/04/26 03:41:58;;;;;;;5.67;3.90;;;5.40;99.90;;;;;;5051837;28;20455;-68
2022/04/26 03:44:23;;;;;;;7.50;6.37;;;5.40;99.90;;;;;;5051796;28;21125;-69
2022/04/26 03:46:49;;;;;;;8.23;3.97;;;5.40;99.90;;;;;;5051694;28;20166;-68
2022/04/26 03:49:14;;;;;;;13.27;4.97;;;5.40;99.90;;;;;;5051785;28;20221;-69
2022/04/26 03:51:40;;;;;;;7.03;4.80;;;5.40;99.90;;;;;;5052019;28;20236;-68
2022/04/26 03:54:05;;;;;;;7.20;5.10;;;5.40;99.90;;;;;;5052038;28;20171;-68
2022/04/26 03:56:30;;;;;;;8.10;5.20;;;5.40;99.90;;;;;;5052411;28;20210;-68
2022/04/26 03:58:56;;;;;;;6.57;5.07;;;5.40;99.90;;;;;;5052552;28;20198;-69
2022/04/26 04:01:22;;;;;;;7.33;5.43;;;5.50;99.90;;;;;;5052256;28;20182;-68
2022/04/26 04:03:47;;;;;;;9.23;5.53;;;5.50;99.90;;;;;;5052389;28;20189;-68
2022/04/26 04:06:13;;;;;;;6.53;4.67;;;5.50;99.90;;;;;;5051479;28;20401;-68
2022/04/26 04:08:39;;;;;;;8.00;4.77;;;5.60;99.90;;;;;;5051289;28;20206;-68
2022/04/26 04:11:04;;;;;;;6.93;5.83;;;5.70;99.90;;;;;;5051338;28;20220;-68
2022/04/26 04:13:30;;;;;;;8.27;6.20;;;5.70;99.90;;;;;;5051008;28;20191;-69
2022/04/26 04:15:56;;;;;;;9.47;5.77;;;5.80;99.90;;;;;;5051043;28;20725;-68
2022/04/26 04:21:23;;;;;;;8.40;6.60;;;5.90;99.90;;;;;;4970037;28;21002;-67
2022/04/26 04:23:48;;;;;;;6.93;4.37;;;5.90;99.90;;;;;;5063596;22;20592;-68
2022/04/26 04:26:14;;;;;;;8.57;5.50;;;6.00;99.90;;;;;;5060081;28;20175;-68
2022/04/26 04:28:39;;;;;;;8.30;5.37;;;6.00;99.90;;;;;;5052114;28;20205;-68
2022/04/26 04:31:05;;;;;;;10.03;5.90;;;6.10;99.90;;;;;;5052133;28;20171;-68
2022/04/26 04:33:31;;;;;;;8.50;4.90;;;6.20;99.90;;;;;;5051810;28;20608;-68
2022/04/26 04:35:56;;;;;;;11.87;6.40;;;6.30;99.90;;;;;;5052164;28;20214;-68
2022/04/26 04:38:22;;;;;;;8.10;5.40;;;6.50;99.90;;;;;;5052509;28;20485;-68
2022/04/26 04:40:47;;;;;;;6.83;5.23;;;6.50;99.90;;;;;;5054301;28;20171;-68
2022/04/26 04:43:13;;;;;;;10.57;5.60;;;6.60;99.90;;;;;;5054409;28;20195;-68
2022/04/26 04:45:40;;;;;;;14.87;5.23;;;6.70;99.90;;;;;;5054163;28;20182;-71
2022/04/26 04:48:06;;;;;;;8.50;4.03;;;6.80;99.90;;;;;;5052507;28;20199;-68
2022/04/26 04:50:32;;;;;;;8.10;5.30;;;6.90;99.90;;;;;;5052178;28;20406;-68
2022/04/26 04:52:58;;;;;;;7.57;4.43;;;7.00;99.90;;;;;;5051598;28;20425;-68
2022/04/26 04:55:24;;;;;;;8.90;5.47;;;7.00;99.90;;;;;;5051422;28;20920;-69
2022/04/26 04:57:50;;;;;;;6.37;4.07;;;7.10;99.90;;;;;;5051809;28;20484;-68
2022/04/26 05:00:16;;;;;;;8.07;4.80;;;7.20;99.90;;;;;;5051836;28;20409;-69
2022/04/26 05:02:42;;;;;;;8.10;4.70;;;7.30;99.90;;;;;;5051540;28;20478;-68
2022/04/26 05:05:08;;;;;;;5.97;4.37;;;7.40;99.90;;;;;;5052005;28;20408;-68
2022/04/26 05:07:33;;;;;;;7.30;4.07;;;7.60;99.90;;;;;;5052013;28;20281;-68
2022/04/26 05:09:59;;;;;;;7.33;4.27;;;7.70;99.90;;;;;;5054017;28;20413;-68
2022/04/26 05:12:24;;;;;;;9.57;3.90;;;7.80;99.90;;;;;;5039025;28;20191;-69
2022/04/26 05:14:50;;;;;;;6.37;3.37;;;7.90;99.90;;;;;;5038334;28;20708;-68
2022/04/26 05:17:15;;;;;;;6.80;4.40;;;7.90;99.90;;;;;;5055390;28;20171;-69
2022/04/26 05:19:41;;;;;;;8.10;4.20;;;8.10;99.90;;;;;;5055624;28;20171;-69
2022/04/26 05:22:10;;;;;;;7.43;4.80;;;8.30;99.90;;;;;;5055114;28;20171;-67
2022/04/26 05:24:56;;;;;;;5.90;4.30;;;8.40;99.90;;;;;;5055200;28;20256;-69
2022/04/26 05:27:27;;;;;;;9.20;3.80;;;8.70;99.90;;;;;;5055162;28;20453;-69
2022/04/26 05:29:54;;;;;;;9.50;3.97;;;9.00;99.90;;;;;;5055305;28;20406;-68
2022/04/26 05:32:21;;;;;;;6.50;3.83;;;9.40;99.90;;;;;;5054974;28;20422;-67
2022/04/26 05:34:47;;;;;;;5.10;4.10;;;9.80;99.90;;;;;;5054782;28;20433;-68
2022/04/26 05:37:12;;;;;;;6.03;3.90;;;10.30;99.90;;;;;;5055031;28;20448;-68
2022/04/26 05:39:38;;;;;;;4.50;2.90;;;10.80;99.90;;;;;;5054955;28;20409;-68
2022/04/26 05:42:03;;;;;;;5.23;3.70;;;10.80;99.90;;;;;;5054699;28;20217;-69
2022/04/26 05:44:29;;;;;;;3.73;3.30;;;10.80;99.90;;;;;;5054791;28;20194;-70
2022/04/26 05:46:54;;;;;;;6.17;3.97;;;10.90;99.90;;;;;;5055618;28;20174;-69
2022/04/26 05:49:20;;;;;;;6.60;4.20;;;10.80;99.90;;;;;;5054750;28;20202;-69
2022/04/26 05:51:45;;;;;;;4.63;3.50;;;10.90;99.90;;;;;;5054576;28;20172;-68
2022/04/26 05:54:11;;;;;;;3.87;3.50;;;11.30;99.90;;;;;;5054657;28;20273;-68
2022/04/26 05:56:36;;;;;;;5.60;3.97;;;11.80;99.90;;;;;;5054517;28;20163;-68
2022/04/26 05:59:02;;;;;;;6.07;4.60;;;12.10;99.90;;;;;;5054639;28;20256;-69
2022/04/26 06:01:27;;;;;;;5.03;4.53;;;12.30;99.90;;;;;;5055142;28;20167;-69
2022/04/26 06:03:53;;;;;;;6.70;4.40;;;12.70;99.90;;;;;;5038041;28;20559;-68
2022/04/26 06:06:19;;;;;;;5.17;4.03;;;12.80;99.90;;;;;;5059020;28;20171;-68
2022/04/26 06:08:44;;;;;;;6.00;4.13;;;13.00;99.90;;;;;;5040127;28;20554;-68
2022/04/26 06:11:09;;;;;;;6.20;4.20;;;13.20;99.90;;;;;;5054806;28;20505;-68
2022/04/26 06:13:35;;;;;;;8.03;4.13;;;13.30;99.90;;;;;;5053379;28;20191;-70
2022/04/26 06:16:01;;;;;;;7.67;4.30;;;13.00;99.90;;;;;;5063252;28;20169;-69
2022/04/26 06:18:26;;;;;;;5.90;3.40;;;13.30;99.90;;;;;;5073302;28;20178;-69
2022/04/26 06:20:52;;;;;;;4.33;3.13;;;13.90;99.90;;;;;;5073309;28;20174;-68
2022/04/26 06:23:17;;;;;;;4.63;3.10;;;14.60;99.90;;;;;;5072663;28;20242;-70
2022/04/26 06:25:42;;;;;;;5.20;2.53;;;14.80;99.90;;;;;;5073853;28;20188;-69
2022/04/26 06:28:09;;;;;;;2.70;2.50;;;14.90;98.70;;;;;;5074021;28;20200;-69
2022/04/26 06:30:40;;;;;;;3.73;2.77;;;15.30;98.40;;;;;;5074327;28;20162;-68
2022/04/26 06:33:06;;;;;;;2.80;2.50;;;16.00;95.50;;;;;;5085743;28;20506;-69
2022/04/26 06:35:32;;;;;;;2.83;2.50;;;15.70;95.90;;;;;;5088081;28;20875;-69
2022/04/26 06:38:00;;;;;;;2.60;2.40;;;16.10;95.20;;;;;;5076286;28;20407;-69
2022/04/26 06:40:26;;;;;;;3.63;2.87;;;15.70;93.70;;;;;;5076038;28;20176;-69
2022/04/26 06:42:52;;;;;;;2.60;2.33;;;15.70;94.00;;;;;;5076464;28;20487;-69
2022/04/26 06:45:17;;;;;;;2.60;2.40;;;16.60;91.50;;;;;;5075965;28;20459;-68
2022/04/26 06:47:43;;;;;;;2.13;1.87;;;16.70;91.60;;;;;;5073330;28;20206;-68
2022/04/26 06:50:09;;;;;;;2.67;2.47;;;17.30;88.60;;;;;;5086228;28;20168;-68
2022/04/26 06:52:35;;;;;;;3.23;2.60;;;17.30;87.30;;;;;;5093807;28;20418;-68
2022/04/26 06:55:00;;;;;;;2.07;1.73;;;17.30;84.60;;;;;;5093998;28;20373;-69
2022/04/26 06:57:26;;;;;;;2.23;2.03;;;17.40;83.70;;;;;;5093494;28;20173;-68
2022/04/26 06:59:51;;;;;;;2.00;1.70;;;17.80;78.40;;;;;;5083336;28;20192;-68
2022/04/26 07:02:17;;;;;;;1.50;1.40;;;16.80;79.00;;;;;;5072969;28;20166;-68
2022/04/26 07:04:42;;;;;;;2.63;2.43;;;17.50;76.50;;;;;;5073733;28;20175;-70
2022/04/26 07:07:08;;;;;;;1.50;1.23;;;17.00;74.80;;;;;;5073081;28;20180;-68
2022/04/26 07:09:33;;;;;;;1.33;1.23;;;17.20;73.90;;;;;;5073043;28;20671;-69
2022/04/26 07:11:58;;;;;;;2.27;1.40;;;18.20;68.40;;;;;;5072930;28;20165;-68
2022/04/26 07:14:24;;;;;;;1.77;1.53;;;18.20;68.90;;;;;;5073557;28;20618;-69
2022/04/26 07:16:50;;;;;;;2.20;1.63;;;17.70;71.20;;;;;;5072955;28;20189;-69
2022/04/26 07:19:17;;;;;;;1.80;1.50;;;18.10;67.90;;;;;;5073500;28;20189;-68
2022/04/26 07:21:44;;;;;;;2.37;1.50;;;17.40;71.50;;;;;;5074099;28;20165;-70
2022/04/26 07:24:11;;;;;;;2.27;1.97;;;17.00;72.80;;;;;;5065312;28;20468;-68
2022/04/26 07:26:37;;;;;;;1.53;1.20;;;17.40;69.80;;;;;;5053542;28;20398;-67
2022/04/26 07:29:03;;;;;;;3.43;2.20;;;18.60;66.50;;;;;;5053353;28;20993;-69
2022/04/26 07:31:30;;;;;;;2.53;1.67;;;18.30;66.90;;;;;;5053408;28;20295;-69
2022/04/26 07:36:39;;;;;;;2.50;1.60;;;19.40;64.30;;;;;;5055907;28;20539;-69
2022/04/26 07:39:06;;;;;;;2.43;1.90;;;18.70;63.70;;;;;;5055039;28;20400;-70
2022/04/26 07:41:31;;;;;;;1.90;1.67;;;18.40;65.70;;;;;;5053584;28;20214;-68
2022/04/26 07:43:57;;;;;;;1.87;1.53;;;18.70;64.00;;;;;;5052292;28;20455;-68
2022/04/26 07:46:22;;;;;;;2.00;1.80;;;19.10;60.80;;;;;;5053370;28;20563;-68
2022/04/26 07:48:48;;;;;;;4.17;1.60;;;18.40;64.80;;;;;;5053872;28;20230;-67
2022/04/26 07:51:13;;;;;;;1.83;1.17;;;17.40;64.50;;;;;;5071785;28;20173;-67
2022/04/26 07:53:39;;;;;;;1.30;1.20;;;17.60;65.10;;;;;;5074857;28;20223;-70
2022/04/26 07:56:05;;;;;;;2.07;1.10;;;17.60;64.70;;;;;;5076102;28;20649;-69
2022/04/26 07:58:32;;;;;;;1.17;1.07;;;18.10;62.30;;;;;;5074467;28;20629;-69
2022/04/26 08:00:58;;;;;;;1.30;1.20;;;17.10;62.10;;;;;;5075032;28;20483;-69
2022/04/26 08:03:23;;;;;;;1.60;1.40;;;18.40;60.30;;;;;;5073553;28;20826;-68
2022/04/26 08:05:49;;;;;;;1.67;1.40;;;18.40;56.90;;;;;;5072531;28;20189;-69
2022/04/26 08:08:15;;;;;;;1.83;1.17;;;18.80;57.00;;;;;;5072755;28;20266;-67
2022/04/26 08:10:40;;;;;;;2.43;1.80;;;18.60;57.20;;;;;;5072443;28;20564;-68
2022/04/26 08:13:06;;;;;;;1.40;1.30;;;18.10;57.80;;;;;;5073932;28;20283;-69
2022/04/26 08:15:31;;;;;;;2.50;2.30;;;19.20;57.00;;;;;;5074150;28;20533;-69
2022/04/26 08:17:57;;;;;;;1.20;1.10;;;18.40;57.50;;;;;;5074395;28;20208;-69
2022/04/26 08:20:24;;;;;;;1.20;1.10;;;19.00;55.00;;;;;;5074739;28;20200;-69
2022/04/26 08:22:49;;;;;;;1.60;1.30;;;18.50;55.20;;;;;;5056041;28;20299;-69
2022/04/26 08:28:00;;;;;;;2.10;1.50;;;19.10;55.90;;;;;;5057298;28;20207;-68
2022/04/26 08:30:26;;;;;;;1.33;1.20;;;19.00;58.10;;;;;;5071978;28;20424;-69
2022/04/26 08:32:51;;;;;;;1.67;1.50;;;18.40;58.70;;;;;;5071813;28;20420;-68
2022/04/26 08:35:22;;;;;;;2.20;2.00;;;18.40;58.40;;;;;;5072551;28;20527;-68
2022/04/26 08:37:48;;;;;;;1.53;1.40;;;19.20;56.20;;;;;;5073246;28;20183;-69
2022/04/26 08:40:13;;;;;;;2.07;1.30;;;17.40;56.50;;;;;;5072292;28;20512;-71
2022/04/26 08:42:52;;;;;;;1.70;1.37;;;17.30;57.60;;;;;;5071728;28;20492;-69
2022/04/26 08:45:19;;;;;;;1.40;1.30;;;18.10;56.20;;;;;;5074226;28;20582;-68
2022/04/26 08:53:18;;;;;;;1.10;1.00;;;19.70;51.30;;;;;;5075957;28;20511;-68
2022/04/26 08:55:47;;;;;;;1.30;1.20;;;19.80;52.40;;;;;;5076004;28;20985;-69
2022/04/26 08:58:14;;;;;;;1.40;1.23;;;20.10;53.30;;;;;;5075778;28;20423;-69
2022/04/26 09:00:41;;;;;;;1.53;1.20;;;19.70;53.10;;;;;;5075760;28;20493;-69
2022/04/26 09:03:08;;;;;;;2.00;1.37;;;19.50;52.00;;;;;;5075263;28;20424;-70
2022/04/26 09:05:34;;;;;;;5.30;4.80;;;19.30;53.90;;;;;;5075438;28;20400;-69
2022/04/26 09:08:02;;;;;;;2.63;2.03;;;19.60;54.00;;;;;;5074522;28;20522;-69
2022/04/26 09:10:29;;;;;;;1.70;1.53;;;18.50;54.80;;;;;;5075500;28;20730;-69
2022/04/26 09:13:07;;;;;;;1.70;1.20;;;18.90;55.00;;;;;;5077075;28;20423;-69
2022/04/26 09:15:50;;;;;;;1.40;1.30;;;18.80;53.90;;;;;;5076758;28;20417;-70
2022/04/26 09:18:26;;;;;;;1.53;1.40;;;19.80;54.10;;;;;;5077608;28;20834;-69
2022/04/26 09:20:54;;;;;;;3.13;1.70;;;19.80;53.90;;;;;;5078211;28;20496;-69
2022/04/26 09:23:24;;;;;;;2.10;1.80;;;20.30;53.20;;;;;;5077414;28;20904;-68
2022/04/26 09:25:58;;;;;;;1.50;1.30;;;19.40;53.20;;;;;;5077876;28;20451;-69
2022/04/26 09:28:27;;;;;;;1.60;1.50;;;18.90;55.80;;;;;;5078661;28;20465;-69
2022/04/26 09:30:52;;;;;;;1.27;1.17;;;19.10;54.70;;;;;;5078500;28;20411;-69
2022/04/26 09:33:38;;;;;;;1.40;1.30;;;18.40;55.50;;;;;;5078387;28;20435;-69
2022/04/26 09:36:06;;;;;;;1.23;1.10;;;18.60;55.90;;;;;;5077366;28;20173;-69
2022/04/26 09:38:33;;;;;;;1.80;1.70;;;18.40;55.90;;;;;;5077631;28;20431;-69
2022/04/26 09:41:01;;;;;;;1.40;1.30;;;17.80;56.80;;;;;;5079050;28;20486;-68
2022/04/26 09:43:28;;;;;;;2.33;2.07;;;18.30;57.20;;;;;;5079252;28;20461;-68
2022/04/26 09:45:56;;;;;;;1.67;1.37;;;18.70;57.20;;;;;;5077118;28;20454;-68
2022/04/26 09:48:29;;;;;;;1.60;1.50;;;19.20;57.10;;;;;;5077093;28;20443;-69
2022/04/26 09:50:57;;;;;;;1.73;1.63;;;19.10;56.70;;;;;;5076556;28;20408;-69
2022/04/26 09:53:22;;;;;;;1.90;1.70;;;19.60;57.70;;;;;;5075617;28;20446;-69
2022/04/26 09:55:48;;;;;;;3.87;2.10;;;18.80;56.90;;;;;;5074814;28;20406;-68
2022/04/26 09:58:19;;;;;;;2.40;2.17;;;18.00;58.30;;;;;;5076050;28;20187;-69
2022/04/26 10:00:47;;;;;;;2.17;1.63;;;17.30;59.60;;;;;;5077396;28;20718;-69
2022/04/26 10:03:16;;;;;;;1.93;1.83;;;17.40;59.00;;;;;;5077420;28;20446;-69
2022/04/26 10:05:45;;;;;;;3.00;1.70;;;17.40;58.60;;;;;;5060443;28;20477;-69
2022/04/26 10:08:13;;;;;;;2.10;1.70;;;17.10;58.50;;;;;;5076567;28;20539;-68
2022/04/26 10:10:39;;;;;;;1.70;1.60;;;17.30;59.10;;;;;;5075131;28;20895;-69
2022/04/26 10:15:49;;;;;;;3.00;1.70;;;17.10;58.60;;;;;;5074469;28;20179;-68
2022/04/26 10:18:38;;;;;;;1.73;1.43;;;16.40;59.20;;;;;;5074367;28;20414;-68
2022/04/26 10:21:05;;;;;;;2.17;1.63;;;16.50;59.20;;;;;;5074566;28;20181;-68
2022/04/26 10:24:06;;;;;;;2.37;2.17;;;16.20;61.90;;;;;;5078097;22;20505;-67
2022/04/26 10:26:33;;;;;;;1.63;1.53;;;16.40;60.70;;;;;;5032734;28;20415;-67
2022/04/26 10:29:08;;;;;;;2.30;2.10;;;16.20;60.60;;;;;;5033209;28;20467;-67
2022/04/26 10:31:35;;;;;;;2.17;1.60;;;16.60;60.60;;;;;;5033031;28;20403;-68
2022/04/26 10:34:03;;;;;;;2.10;1.63;;;16.20;62.20;;;;;;5032842;28;20422;-68
2022/04/26 10:36:34;;;;;;;2.83;2.30;;;16.40;61.70;;;;;;5015115;28;20494;-69
2022/04/26 10:39:06;;;;;;;1.73;1.63;;;16.50;61.30;;;;;;5033040;28;20414;-68
2022/04/26 10:41:35;;;;;;;1.60;1.40;;;16.20;60.60;;;;;;5033048;28;20433;-68
2022/04/26 10:44:13;;;;;;;2.80;1.97;;;16.10;62.20;;;;;;5032939;28;20814;-69
2022/04/26 10:47:09;;;;;;;1.43;1.33;;;16.40;62.60;;;;;;5032833;28;20428;-68
2022/04/26 10:49:40;;;;;;;2.07;1.83;;;16.50;62.20;;;;;;5032490;28;20532;-68
2022/04/26 10:52:15;;;;;;;1.63;1.53;;;16.70;60.10;;;;;;5032543;28;20476;-68
2022/04/26 10:55:07;;;;;;;2.60;1.90;;;16.60;61.10;;;;;;5032716;28;20425;-68
2022/04/26 10:57:44;;;;;;;2.00;1.60;;;16.30;62.70;;;;;;5032763;28;20441;-68
2022/04/26 11:00:15;;;;;;;2.17;2.00;;;16.00;61.80;;;;;;5032677;28;20413;-67
2022/04/26 11:02:46;;;;;;;1.30;1.17;;;15.80;62.30;;;;;;5032419;28;20509;-66
2022/04/26 11:05:16;;;;;;;2.43;1.93;;;15.80;63.40;;;;;;5032808;28;20756;-68
2022/04/26 11:07:46;;;;;;;1.70;1.57;;;16.20;63.10;;;;;;5032046;28;20454;-68
2022/04/26 11:10:13;;;;;;;2.10;1.90;;;16.30;62.70;;;;;;5032500;28;20552;-68
2022/04/26 11:12:40;;;;;;;2.40;1.20;;;16.30;63.10;;;;;;5032540;28;20989;-68
2022/04/26 11:15:20;;;;;;;1.57;1.20;;;16.20;59.20;;;;;;5032340;28;20407;-68
2022/04/26 11:17:47;;;;;;;1.70;1.47;;;15.80;58.20;;;;;;5032468;28;20422;-68
2022/04/26 11:20:18;;;;;;;1.80;1.60;;;15.60;59.90;;;;;;5032360;28;20438;-67
2022/04/26 11:22:46;;;;;;;1.73;1.50;;;15.80;58.40;;;;;;5032177;28;20524;-68
2022/04/26 11:28:11;;;;;;;2.40;1.50;;;16.60;59.10;;;;;;5033059;28;20986;-68
2022/04/26 11:30:36;;;;;;;2.47;1.60;;;16.90;59.00;;;;;;5032447;28;20434;-67
2022/04/26 11:33:04;;;;;;;2.03;1.83;;;16.90;58.30;;;;;;5031594;28;20976;-67
2022/04/26 11:35:31;;;;;;;1.87;1.50;;;16.30;58.20;;;;;;5031729;28;20212;-68
2022/04/26 11:38:17;;;;;;;2.93;2.20;;;15.90;59.20;;;;;;5032103;28;20402;-67
2022/04/26 11:41:00;;;;;;;2.30;1.80;;;16.30;59.00;;;;;;5031365;28;20446;-70
2022/04/26 11:43:28;;;;;;;1.97;1.70;;;16.70;58.00;;;;;;5033609;28;20481;-68
2022/04/26 11:45:55;;;;;;;2.87;1.57;;;16.80;56.60;;;;;;5031814;28;20805;-68
2022/04/26 11:48:29;;;;;;;2.27;1.70;;;16.80;57.70;;;;;;5032286;28;20449;-69
2022/04/26 11:50:56;;;;;;;2.70;1.77;;;17.10;59.30;;;;;;5031746;28;20905;-71
2022/04/26 11:53:30;;;;;;;2.93;1.97;;;17.00;58.90;;;;;;5031768;28;20430;-69
2022/04/26 11:56:01;;;;;;;2.13;1.73;;;16.40;59.50;;;;;;5009899;28;20417;-67
2022/04/26 11:58:27;;;;;;;1.70;1.60;;;16.50;59.40;;;;;;5019124;28;20416;-68
2022/04/26 12:00:56;;;;;;;3.07;1.83;;;16.70;59.40;;;;;;4992134;28;20400;-68
2022/04/26 12:03:27;;;;;;;3.87;1.80;;;16.80;59.40;;;;;;4992921;28;20196;-68
2022/04/26 12:05:56;;;;;;;1.77;1.67;;;16.60;58.60;;;;;;4991900;28;20423;-68
2022/04/26 12:08:22;;;;;;;2.40;1.53;;;16.60;58.20;;;;;;4992201;28;20552;-69
2022/04/26 12:10:48;;;;;;;2.33;2.13;;;16.80;58.60;;;;;;4993495;28;20777;-67
2022/04/26 12:13:26;;;;;;;2.37;1.93;;;16.40;58.80;;;;;;4992418;28;20441;-67
2022/04/26 12:15:51;;;;;;;1.43;1.30;;;16.40;57.30;;;;;;4992186;28;20414;-67
2022/04/26 12:18:17;;;;;;;2.77;1.67;;;16.80;56.80;;;;;;5007680;28;20430;-68
2022/04/26 12:21:00;;;;;;;1.77;1.43;;;16.80;56.00;;;;;;5015312;28;20187;-68
2022/04/26 12:23:27;;;;;;;2.60;2.10;;;16.40;56.70;;;;;;5015845;28;20211;-68
2022/04/26 12:26:00;;;;;;;4.30;2.00;;;16.60;56.30;;;;;;5015797;28;20415;-68
2022/04/26 12:28:25;;;;;;;1.70;1.60;;;16.40;57.10;;;;;;5014344;28;20455;-68
2022/04/26 12:30:51;;;;;;;2.27;2.07;;;16.50;57.30;;;;;;5015905;28;20418;-68
2022/04/26 12:33:36;;;;;;;1.80;1.70;;;16.70;56.20;;;;;;5015519;28;20192;-68
2022/04/26 12:36:06;;;;;;;1.83;1.43;;;16.70;55.50;;;;;;5015443;28;20407;-68
2022/04/26 12:38:47;;;;;;;1.43;1.30;;;16.70;56.10;;;;;;5015529;28;20415;-69
2022/04/26 12:41:13;;;;;;;1.83;1.70;;;16.80;55.00;;;;;;5015460;28;20789;-68
2022/04/26 12:43:39;;;;;;;2.73;1.87;;;16.70;55.90;;;;;;5015258;28;20806;-68
2022/04/26 12:46:07;;;;;;;2.20;1.83;;;16.70;57.60;;;;;;5015208;28;20422;-67
2022/04/26 12:51:25;;;;;;;1.60;1.40;;;17.40;58.30;;;;;;5015628;28;20443;-69
2022/04/26 12:53:51;;;;;;;1.57;1.47;;;17.60;57.90;;;;;;5015435;28;20525;-69
2022/04/26 12:56:18;;;;;;;5.73;1.50;;;17.70;57.00;;;;;;5014939;28;20421;-69
2022/04/26 12:58:48;;;;;;;5.23;1.90;;;17.40;56.20;;;;;;5014987;28;20403;-68
2022/04/26 13:01:14;;;;;;;2.30;1.77;;;17.10;56.30;;;;;;5015121;28;20470;-68
2022/04/26 13:03:41;;;;;;;1.60;1.50;;;17.60;56.80;;;;;;5022559;28;20529;-69
2022/04/26 13:06:16;;;;;;;1.53;1.43;;;17.70;55.00;;;;;;5030829;28;20927;-68
2022/04/26 13:08:46;;;;;;;2.80;1.70;;;17.70;55.10;;;;;;5034483;28;20515;-68
2022/04/26 13:11:12;;;;;;;1.70;1.60;;;17.60;55.60;;;;;;5026971;28;20478;-68
2022/04/26 13:13:41;;;;;;;1.83;1.73;;;17.90;55.60;;;;;;5014869;28;20427;-68
2022/04/26 13:16:07;;;;;;;1.50;1.40;;;18.00;55.00;;;;;;5014689;28;20413;-69
2022/04/26 13:18:32;;;;;;;2.87;1.50;;;18.00;54.90;;;;;;5014633;28;20438;-68
2022/04/26 13:20:59;;;;;;;1.60;1.50;;;17.90;54.30;;;;;;5014813;28;20918;-69
2022/04/26 13:23:25;;;;;;;2.20;2.00;;;17.60;54.00;;;;;;5014173;28;20217;-68
2022/04/26 13:25:52;;;;;;;1.80;1.63;;;17.50;54.40;;;;;;5014753;28;20430;-68
2022/04/26 13:28:18;;;;;;;1.47;1.37;;;17.70;54.20;;;;;;5014166;28;20943;-69
2022/04/26 13:30:44;;;;;;;1.53;1.43;;;17.40;54.30;;;;;;4996084;28;20812;-68
2022/04/26 13:33:10;;;;;;;1.70;1.43;;;17.50;54.80;;;;;;4994440;28;20478;-69
2022/04/26 13:35:37;;;;;;;9.70;6.47;;;17.30;53.90;;;;;;4977130;28;20330;-72
2022/04/26 13:38:14;;;;;;;2.90;1.73;;;17.60;56.00;;;;;;4994472;28;20171;-76
2022/04/26 13:40:41;;;;;;;2.00;1.67;;;17.30;54.50;;;;;;4994608;28;20397;-69
2022/04/26 13:43:07;;;;;;;2.07;1.70;;;17.40;53.70;;;;;;5013674;28;20429;-68
2022/04/26 13:45:34;;;;;;;2.83;1.73;;;17.50;53.70;;;;;;5013915;28;20500;-69
2022/04/26 13:48:01;;;;;;;1.77;1.67;;;17.50;53.40;;;;;;5013951;28;20840;-68
2022/04/26 13:50:28;;;;;;;1.53;1.13;;;17.60;54.10;;;;;;5013796;28;20440;-68
2022/04/26 13:52:53;;;;;;;2.10;1.70;;;17.70;54.70;;;;;;5013719;28;20436;-69
2022/04/26 13:55:19;;;;;;;2.00;1.90;;;17.80;53.90;;;;;;5013287;28;20919;-69
2022/04/26 13:57:46;;;;;;;2.00;1.70;;;17.80;54.40;;;;;;4992406;28;20188;-68
2022/04/26 14:00:12;;;;;;;2.07;1.37;;;17.60;53.80;;;;;;5013640;28;20416;-69
2022/04/26 14:02:41;;;;;;;2.30;1.40;;;17.50;54.20;;;;;;5012822;28;20424;-69
2022/04/26 14:05:07;;;;;;;1.80;1.40;;;17.60;53.90;;;;;;5013486;28;20474;-68
2022/04/26 14:07:32;;;;;;;2.57;1.70;;;17.50;54.20;;;;;;5013566;28;20938;-69
2022/04/26 14:09:58;;;;;;;1.70;1.60;;;17.30;54.40;;;;;;5013794;28;20531;-68
2022/04/26 14:12:23;;;;;;;2.33;1.73;;;17.30;54.20;;;;;;5013359;28;20174;-68
2022/04/26 14:23:18;;;;;;;1.20;1.10;;;17.10;53.60;;;;;;5004784;28;20455;-69
2022/04/26 14:25:44;;;;;;;1.30;1.20;;;17.00;52.90;;;;;;5013306;28;20413;-69
2022/04/26 14:28:09;;;;;;;2.40;1.30;;;17.10;52.70;;;;;;5013328;28;20273;-69
2022/04/26 14:30:35;;;;;;;1.40;1.30;;;17.10;52.70;;;;;;5013599;28;20276;-70
2022/04/26 14:33:01;;;;;;;1.53;1.43;;;17.10;52.80;;;;;;5013274;28;20290;-68
2022/04/26 14:35:29;;;;;;;1.43;1.33;;;16.90;52.60;;;;;;5013220;28;20177;-68
2022/04/26 14:37:54;;;;;;;2.37;1.60;;;16.90;52.40;;;;;;5013429;28;20179;-68
2022/04/26 14:40:20;;;;;;;1.40;1.20;;;17.00;52.60;;;;;;5021250;28;20427;-69
2022/04/26 14:42:46;;;;;;;1.63;1.40;;;16.90;52.70;;;;;;5024980;28;20561;-69
2022/04/26 14:45:12;;;;;;;1.43;1.20;;;17.00;53.00;;;;;;5032566;28;20334;-69
2022/04/26 14:47:37;;;;;;;1.50;1.40;;;17.20;52.40;;;;;;5032646;28;20415;-68
2022/04/26 14:50:05;;;;;;;1.83;1.43;;;17.30;52.70;;;;;;5032713;28;20409;-69
2022/04/26 14:52:31;;;;;;;1.37;1.27;;;17.30;52.60;;;;;;5032587;28;20728;-69
2022/04/26 14:54:57;;;;;;;1.67;1.43;;;17.60;52.40;;;;;;5025511;28;20497;-68
2022/04/26 14:57:23;;;;;;;1.83;1.20;;;17.90;52.70;;;;;;5012638;28;20399;-68
2022/04/26 14:59:48;;;;;;;1.73;1.50;;;17.80;51.50;;;;;;5013187;28;20404;-70
2022/04/26 15:02:18;;;;;;;1.33;1.23;;;17.70;51.90;;;;;;5013717;28;20167;-68
2022/04/26 15:04:45;;;;;;;1.47;1.20;;;17.80;51.30;;;;;;5012728;28;20284;-69
2022/04/26 15:07:11;;;;;;;2.60;1.40;;;17.60;52.20;;;;;;5012864;28;20456;-68
2022/04/26 15:09:42;;;;;;;1.67;1.40;;;17.50;52.20;;;;;;5012629;28;20457;-69
2022/04/26 15:17:38;;;;;;;1.20;1.10;;;17.10;53.60;;;;;;5013146;28;20493;-69
2022/04/26 15:20:04;;;;;;;2.03;1.53;;;17.10;53.50;;;;;;5012779;28;20441;-68
2022/04/26 15:22:30;;;;;;;1.40;1.30;;;17.10;54.40;;;;;;5012897;28;20178;-68
2022/04/26 15:24:55;;;;;;;1.47;1.30;;;17.00;54.80;;;;;;5012524;28;20417;-69
2022/04/26 15:27:21;;;;;;;1.17;1.07;;;17.00;55.00;;;;;;5012285;28;20177;-68
2022/04/26 15:29:47;;;;;;;1.80;1.20;;;17.00;54.90;;;;;;5012130;28;20194;-69
2022/04/26 15:32:13;;;;;;;1.40;1.30;;;17.10;55.00;;;;;;5025852;28;20205;-68
2022/04/26 15:34:39;;;;;;;1.20;1.10;;;17.00;55.40;;;;;;5011651;28;20436;-68
2022/04/26 15:37:06;;;;;;;1.20;1.10;;;16.90;55.90;;;;;;5011886;28;20934;-68
2022/04/26 15:39:31;;;;;;;1.50;1.40;;;16.70;55.90;;;;;;5014892;28;20264;-69
2022/04/26 15:41:57;;;;;;;1.37;1.27;;;16.80;55.90;;;;;;5023145;28;20480;-69
2022/04/26 15:44:23;;;;;;;1.50;1.40;;;16.70;55.20;;;;;;5031712;28;20664;-69
2022/04/26 15:46:52;;;;;;;1.73;1.60;;;16.70;55.60;;;;;;5014472;28;20191;-68
2022/04/26 15:49:19;;;;;;;1.50;1.40;;;16.70;55.30;;;;;;5011907;28;20542;-68
2022/04/26 15:51:44;;;;;;;1.80;1.50;;;16.70;55.80;;;;;;5011838;28;20405;-68
2022/04/26 15:54:10;;;;;;;5.93;1.50;;;16.70;56.30;;;;;;5011520;28;21001;-68
2022/04/26 15:56:36;;;;;;;1.67;1.57;;;16.70;56.70;;;;;;5011939;28;20179;-68
2022/04/26 15:59:02;;;;;;;1.83;1.30;;;16.60;56.70;;;;;;5012082;28;20191;-70
2022/04/26 16:01:28;;;;;;;1.53;1.37;;;16.70;56.90;;;;;;5011583;28;20297;-69
2022/04/26 16:03:54;;;;;;;2.37;1.70;;;16.60;56.90;;;;;;5011144;28;20479;-68
2022/04/26 16:06:19;;;;;;;1.50;1.40;;;16.70;57.00;;;;;;5011440;28;20212;-68
2022/04/26 16:08:46;;;;;;;1.17;1.00;;;16.60;56.80;;;;;;5011787;28;20484;-68
2022/04/26 16:22:07;;;;;;;2.00;1.30;;;16.60;56.80;;;;;;5011760;28;20462;-68
2022/04/26 16:24:38;;;;;;;1.50;1.30;;;16.50;56.40;;;;;;5056568;22;21023;-69
2022/04/26 16:27:05;;;;;;;1.50;1.20;;;16.50;56.00;;;;;;5046877;28;20167;-69
2022/04/26 16:29:31;;;;;;;1.70;1.37;;;16.60;56.30;;;;;;5037490;28;20459;-71
2022/04/26 16:31:56;;;;;;;1.80;1.70;;;16.60;56.30;;;;;;5054212;28;20485;-69
2022/04/26 16:34:22;;;;;;;1.77;1.63;;;16.60;56.20;;;;;;5052556;28;20195;-68
2022/04/26 16:36:47;;;;;;;2.90;1.20;;;16.60;56.00;;;;;;5038718;28;20173;-68
2022/04/26 16:39:13;;;;;;;1.10;1.00;;;16.50;56.10;;;;;;5013329;28;20166;-70
2022/04/26 16:41:38;;;;;;;1.33;1.23;;;16.40;56.40;;;;;;5032995;28;20214;-69
2022/04/26 16:44:04;;;;;;;1.40;1.30;;;16.40;56.20;;;;;;5034545;28;20694;-70
2022/04/26 16:46:32;;;;;;;1.93;1.43;;;16.40;56.40;;;;;;5017452;28;20179;-70
2022/04/26 16:48:58;;;;;;;1.10;1.00;;;16.50;56.50;;;;;;5033098;28;20297;-69
2022/04/26 16:51:25;;;;;;;1.80;1.70;;;16.50;56.20;;;;;;5032826;28;20404;-69
2022/04/26 16:53:51;;;;;;;2.20;2.10;;;16.40;56.30;;;;;;5032399;28;20434;-69
2022/04/26 16:56:16;;;;;;;1.70;1.60;;;16.20;56.60;;;;;;5031382;28;20775;-69
2022/04/26 16:58:42;;;;;;;2.57;2.33;;;16.20;56.90;;;;;;5032446;28;20248;-69
2022/04/26 17:01:08;;;;;;;2.50;1.83;;;16.20;56.90;;;;;;5032292;28;20251;-70
2022/04/26 17:03:33;;;;;;;2.47;2.20;;;16.20;57.10;;;;;;5018561;28;20178;-69
2022/04/26 17:05:58;;;;;;;1.20;1.10;;;16.20;57.30;;;;;;5014565;28;20186;-69
2022/04/26 17:08:24;;;;;;;1.50;1.40;;;16.20;57.40;;;;;;5016326;28;20258;-70
2022/04/26 17:10:50;;;;;;;2.53;1.67;;;16.10;57.50;;;;;;5016407;28;20189;-70
2022/04/26 17:13:16;;;;;;;1.40;1.30;;;16.00;57.70;;;;;;5016639;28;20252;-70